Time;durP1;ratioP1;P1;durP2;ratioP2;P2;SDS_P1;SDS_P2;PMS_P1;PMS_P2;Temp;Humidity;BMP_temperature;BMP_pressure;BME280_temperature;BME280_humidity;BME280_pressure;Samples;Min_cycle;Max_cycle;Signal;HPM_P1;HPM_P2
2022/11/12 04:01:14;;;;;;;0.88;0.68;;;15.80;53.10;;;;;;5608491;23;45782;-60
2022/11/12 04:03:40;;;;;;;1.20;1.10;;;15.80;53.10;;;;;;4950221;28;45248;-62
2022/11/12 04:08:50;;;;;;;0.90;0.85;;;15.80;53.10;;;;;;4946812;28;45109;-62
2022/11/12 04:11:16;;;;;;;1.40;1.17;;;15.80;53.10;;;;;;4952095;28;45503;-63
2022/11/12 04:13:44;;;;;;;1.08;0.90;;;15.80;53.10;;;;;;4939428;28;45013;-63
2022/11/12 04:21:54;;;;;;;1.10;1.00;;;15.80;53.10;;;;;;4947364;28;45368;-63
2022/11/12 04:27:27;;;;;;;1.10;1.00;;;15.80;53.00;;;;;;4956352;28;46044;-61
2022/11/12 04:32:39;;;;;;;0.93;0.90;;;15.80;53.10;;;;;;4952123;28;45077;-62
2022/11/12 04:35:06;;;;;;;1.10;0.95;;;15.80;53.10;;;;;;4954847;28;46205;-63
2022/11/12 04:37:43;;;;;;;1.10;1.00;;;15.70;53.00;;;;;;4955932;28;45455;-62
2022/11/12 04:45:46;;;;;;;1.17;1.00;;;15.70;53.00;;;;;;4942156;28;46103;-60
2022/11/12 04:48:12;;;;;;;0.98;0.90;;;15.70;53.10;;;;;;4942045;28;45451;-61
2022/11/12 04:50:38;;;;;;;0.90;0.80;;;15.70;53.00;;;;;;4936470;28;45264;-62
2022/11/12 04:53:03;;;;;;;1.23;1.13;;;15.70;53.00;;;;;;4953569;28;44987;-63
2022/11/12 04:55:29;;;;;;;0.80;0.80;;;15.70;53.00;;;;;;4955107;28;46998;-63
2022/11/12 04:57:54;;;;;;;1.00;0.90;;;15.80;53.10;;;;;;4952841;28;45411;-63
2022/11/12 05:00:20;;;;;;;1.10;1.00;;;15.70;53.10;;;;;;4954931;28;45602;-62
2022/11/12 05:02:45;;;;;;;1.05;0.90;;;15.70;53.00;;;;;;4950142;28;45291;-62
2022/11/12 05:05:11;;;;;;;0.82;0.80;;;15.70;53.00;;;;;;4935707;28;45488;-62
2022/11/12 05:07:36;;;;;;;1.00;0.90;;;15.70;53.00;;;;;;4933000;28;45293;-62
2022/11/12 05:10:02;;;;;;;0.90;0.90;;;15.70;53.00;;;;;;4954451;28;46444;-59
2022/11/12 05:12:28;;;;;;;0.68;0.68;;;15.70;53.00;;;;;;4949243;28;45077;-65
2022/11/12 05:14:53;;;;;;;0.85;0.85;;;15.70;53.00;;;;;;4953373;28;46167;-62
2022/11/12 05:17:19;;;;;;;0.95;0.80;;;15.70;53.00;;;;;;4953865;28;45270;-62
2022/11/12 05:19:44;;;;;;;0.75;0.75;;;15.70;53.00;;;;;;4954899;28;45385;-57
2022/11/12 05:22:10;;;;;;;1.10;1.00;;;15.70;53.00;;;;;;4953474;28;45238;-64
2022/11/12 05:24:37;;;;;;;0.70;0.65;;;15.70;53.00;;;;;;4954523;28;45360;-64
2022/11/12 05:27:14;;;;;;;0.93;0.90;;;15.70;53.00;;;;;;4955360;28;45293;-62
2022/11/12 05:29:39;;;;;;;1.00;0.90;;;15.70;53.00;;;;;;4956634;28;45552;-62
2022/11/12 05:32:06;;;;;;;1.08;0.98;;;15.70;53.00;;;;;;4955974;28;45696;-61
2022/11/12 05:34:32;;;;;;;1.10;0.98;;;15.70;53.10;;;;;;4953468;28;46917;-60
2022/11/12 05:36:57;;;;;;;0.73;0.70;;;15.70;53.10;;;;;;4957375;28;45179;-61
2022/11/12 05:39:23;;;;;;;0.85;0.85;;;15.70;53.10;;;;;;4951937;28;45037;-62
2022/11/12 05:41:48;;;;;;;1.25;0.80;;;15.70;53.10;;;;;;4953602;28;45346;-62
2022/11/12 05:44:14;;;;;;;1.75;0.80;;;15.70;53.10;;;;;;4955629;28;46260;-61
2022/11/12 05:46:39;;;;;;;1.27;0.95;;;15.70;53.00;;;;;;4948302;28;45446;-62
2022/11/12 05:49:05;;;;;;;1.17;1.00;;;15.70;53.00;;;;;;4953973;28;44990;-62
2022/11/12 05:51:30;;;;;;;0.85;0.80;;;15.70;53.10;;;;;;4950773;28;45158;-61
2022/11/12 05:53:56;;;;;;;0.80;0.80;;;15.70;53.10;;;;;;4953983;28;46943;-62
2022/11/12 05:56:22;;;;;;;1.02;0.80;;;15.70;53.10;;;;;;4953075;28;44975;-62
2022/11/12 05:58:47;;;;;;;0.80;0.80;;;15.70;53.10;;;;;;4951887;28;45510;-61
2022/11/12 06:01:13;;;;;;;0.80;0.80;;;15.70;53.10;;;;;;4951897;28;45629;-63
2022/11/12 06:03:38;;;;;;;1.02;0.93;;;15.70;53.10;;;;;;4954517;28;46831;-63
2022/11/12 06:06:04;;;;;;;0.95;0.85;;;15.70;53.10;;;;;;4934756;28;45546;-62
2022/11/12 06:08:30;;;;;;;1.10;0.90;;;15.70;53.10;;;;;;4946671;28;44770;-60
2022/11/12 06:10:55;;;;;;;0.82;0.80;;;15.70;53.00;;;;;;4954088;28;45393;-62
2022/11/12 06:13:22;;;;;;;1.00;0.90;;;15.70;53.10;;;;;;4951523;28;46131;-61
2022/11/12 06:15:47;;;;;;;0.80;0.80;;;15.70;53.00;;;;;;4930690;28;45007;-62
2022/11/12 06:18:13;;;;;;;1.20;0.90;;;15.70;53.00;;;;;;4951538;28;45270;-61
2022/11/12 06:20:38;;;;;;;0.65;0.65;;;15.70;53.60;;;;;;4954757;28;45106;-60
2022/11/12 06:23:04;;;;;;;1.42;1.08;;;15.70;53.00;;;;;;4938869;28;47429;-61
2022/11/12 06:25:29;;;;;;;1.08;0.98;;;15.70;53.20;;;;;;4954026;28;45363;-63
2022/11/12 06:27:55;;;;;;;2.10;0.75;;;15.60;53.00;;;;;;4951263;28;45375;-61
2022/11/12 06:30:21;;;;;;;2.13;0.95;;;15.60;53.00;;;;;;4955575;28;45499;-61
2022/11/12 06:32:47;;;;;;;1.58;0.93;;;15.60;53.00;;;;;;4955043;28;45485;-62
2022/11/12 06:35:13;;;;;;;0.80;0.80;;;15.60;53.00;;;;;;4959278;28;45193;-62
2022/11/12 06:37:38;;;;;;;0.82;0.80;;;15.60;53.00;;;;;;4952150;28;45043;-63
2022/11/12 06:40:04;;;;;;;1.55;0.95;;;15.60;53.00;;;;;;4940060;28;46742;-62
2022/11/12 06:42:30;;;;;;;1.15;1.05;;;15.60;53.00;;;;;;4941768;28;45928;-62
2022/11/12 06:44:55;;;;;;;0.93;0.80;;;15.60;53.00;;;;;;4958391;28;45324;-62
2022/11/12 06:47:21;;;;;;;1.00;0.82;;;15.60;53.00;;;;;;4944404;28;45618;-62
2022/11/12 06:49:46;;;;;;;1.20;0.93;;;15.60;53.00;;;;;;4954131;28;45566;-62
2022/11/12 06:52:12;;;;;;;1.17;1.08;;;15.60;53.00;;;;;;4949685;28;46120;-61
2022/11/12 06:54:37;;;;;;;1.27;1.02;;;15.60;53.00;;;;;;4942854;28;45486;-64
2022/11/12 06:57:03;;;;;;;1.02;0.80;;;15.70;53.00;;;;;;4942999;28;45240;-61
2022/11/12 06:59:28;;;;;;;0.63;0.63;;;15.60;53.00;;;;;;4957730;28;44961;-64
2022/11/12 07:01:54;;;;;;;0.80;0.80;;;15.60;53.00;;;;;;4954074;28;45977;-63
2022/11/12 07:04:19;;;;;;;1.10;1.00;;;15.60;53.00;;;;;;4957032;28;45631;-62
2022/11/12 07:06:45;;;;;;;0.98;0.70;;;15.60;53.00;;;;;;4952590;28;45273;-59
2022/11/12 07:09:10;;;;;;;0.93;0.90;;;15.60;53.00;;;;;;4957250;28;45177;-62
2022/11/12 07:11:36;;;;;;;0.88;0.73;;;15.60;53.00;;;;;;4955680;28;46103;-62
2022/11/12 07:14:05;;;;;;;1.20;1.00;;;15.60;53.00;;;;;;4954015;28;44996;-62
2022/11/12 07:16:31;;;;;;;0.90;0.85;;;15.60;53.00;;;;;;4952978;28;45252;-63
2022/11/12 07:18:56;;;;;;;1.15;0.98;;;15.60;53.10;;;;;;4956469;28;44919;-63
2022/11/12 07:21:22;;;;;;;0.82;0.70;;;15.60;53.00;;;;;;4956601;28;46319;-63
2022/11/12 07:23:47;;;;;;;1.10;1.00;;;15.60;53.00;;;;;;4957374;28;45370;-63
2022/11/12 07:26:21;;;;;;;0.80;0.77;;;15.60;53.00;;;;;;4956260;28;45260;-69
2022/11/12 07:28:47;;;;;;;1.05;0.93;;;15.60;53.00;;;;;;4954589;28;45303;-62
2022/11/12 07:31:13;;;;;;;1.30;0.90;;;15.60;53.00;;;;;;4946440;28;47086;-62
2022/11/12 07:33:39;;;;;;;1.23;0.88;;;15.60;53.00;;;;;;4956957;28;45474;-62
2022/11/12 07:36:06;;;;;;;1.90;1.00;;;15.60;53.00;;;;;;4951908;28;45614;-59
2022/11/12 07:38:34;;;;;;;1.58;0.90;;;15.60;53.10;;;;;;4944042;28;45384;-62
2022/11/12 07:41:01;;;;;;;0.98;0.88;;;15.60;53.00;;;;;;4954085;28;46337;-63
2022/11/12 07:43:27;;;;;;;1.10;1.00;;;15.60;53.00;;;;;;4942548;28;45595;-62
2022/11/12 07:45:59;;;;;;;0.80;0.77;;;15.60;53.00;;;;;;4957344;28;45607;-62
2022/11/12 07:48:26;;;;;;;0.90;0.90;;;15.60;53.00;;;;;;4948594;28;45444;-63
2022/11/12 07:50:51;;;;;;;0.77;0.77;;;15.60;53.00;;;;;;4951661;28;46056;-62
2022/11/12 07:53:17;;;;;;;1.30;0.98;;;15.60;53.00;;;;;;4953523;28;45254;-60
2022/11/12 07:55:42;;;;;;;0.98;0.88;;;15.60;53.00;;;;;;4957086;28;45566;-63
2022/11/12 07:58:08;;;;;;;1.08;0.80;;;15.60;53.00;;;;;;4953809;28;45527;-62
2022/11/12 08:00:33;;;;;;;1.13;1.00;;;15.60;53.00;;;;;;4954995;28;45964;-62
2022/11/12 08:03:00;;;;;;;1.10;0.95;;;15.60;53.00;;;;;;4949986;28;45290;-62
2022/11/12 08:05:26;;;;;;;0.60;0.60;;;15.60;53.00;;;;;;4950574;28;45371;-67
2022/11/12 08:07:55;;;;;;;0.75;0.63;;;15.60;53.00;;;;;;4957740;28;44891;-62
2022/11/12 08:10:21;;;;;;;0.80;0.80;;;15.60;53.00;;;;;;4940199;28;46253;-63
2022/11/12 08:12:46;;;;;;;1.10;0.95;;;15.50;53.00;;;;;;4950384;28;45453;-62
2022/11/12 08:15:12;;;;;;;1.00;0.70;;;15.60;53.00;;;;;;4956063;28;45263;-62
2022/11/12 08:17:38;;;;;;;0.60;0.60;;;15.60;53.00;;;;;;4942787;28;44650;-62
2022/11/12 08:20:06;;;;;;;0.80;0.73;;;15.50;52.90;;;;;;4949132;28;46106;-62
2022/11/12 08:22:31;;;;;;;1.48;0.80;;;15.60;53.00;;;;;;4954963;28;45172;-61
2022/11/12 08:24:57;;;;;;;1.30;0.80;;;15.50;53.00;;;;;;4951060;28;45524;-63
2022/11/12 08:27:22;;;;;;;0.95;0.73;;;15.60;53.00;;;;;;4952517;28;45255;-63
2022/11/12 08:29:48;;;;;;;1.10;1.00;;;15.60;53.00;;;;;;4949955;28;46155;-62
2022/11/12 08:32:14;;;;;;;1.10;1.00;;;15.60;53.00;;;;;;4953416;28;46182;-64
2022/11/12 08:34:40;;;;;;;1.00;0.90;;;15.60;53.00;;;;;;4962051;28;44822;-62
2022/11/12 08:37:06;;;;;;;1.00;0.93;;;15.60;53.10;;;;;;4945572;28;44909;-61
2022/11/12 08:39:31;;;;;;;0.80;0.80;;;15.50;53.00;;;;;;4954299;28;46172;-62
2022/11/12 08:41:57;;;;;;;1.20;1.00;;;15.50;53.00;;;;;;4955319;28;45491;-59
2022/11/12 08:44:22;;;;;;;0.80;0.80;;;15.50;53.00;;;;;;4954861;28;45177;-63
2022/11/12 08:46:49;;;;;;;0.90;0.80;;;15.50;53.00;;;;;;4952499;28;45466;-60
2022/11/12 08:49:15;;;;;;;1.15;1.02;;;15.50;53.00;;;;;;4956218;28;45985;-62
2022/11/12 08:51:40;;;;;;;0.90;0.90;;;15.50;53.00;;;;;;4952686;28;45385;-62
2022/11/12 08:54:06;;;;;;;0.90;0.80;;;15.60;53.00;;;;;;4952553;28;45217;-61
2022/11/12 08:56:32;;;;;;;0.95;0.93;;;15.60;53.00;;;;;;4955721;28;45075;-60
2022/11/12 08:58:58;;;;;;;0.82;0.80;;;15.60;52.90;;;;;;4956952;28;46231;-60
2022/11/12 09:01:24;;;;;;;1.33;0.90;;;15.60;52.80;;;;;;4934762;28;45525;-62
2022/11/12 09:03:50;;;;;;;0.85;0.77;;;15.60;52.80;;;;;;4946308;28;45479;-61
2022/11/12 09:06:16;;;;;;;1.02;0.90;;;15.60;52.70;;;;;;4953166;28;45429;-64
2022/11/12 09:08:41;;;;;;;1.20;0.90;;;15.70;52.70;;;;;;4952983;28;46376;-62
2022/11/12 09:11:07;;;;;;;0.88;0.70;;;15.70;52.60;;;;;;4953440;28;45241;-62
2022/11/12 09:13:32;;;;;;;1.08;0.98;;;15.70;52.60;;;;;;4952174;28;45050;-59
2022/11/12 09:16:00;;;;;;;0.95;0.80;;;15.70;52.50;;;;;;4953675;28;45586;-60
2022/11/12 09:18:26;;;;;;;1.13;1.02;;;15.70;52.50;;;;;;4950780;28;45141;-62
2022/11/12 09:20:51;;;;;;;0.98;0.75;;;15.70;52.60;;;;;;4945909;28;45500;-61
2022/11/12 09:23:17;;;;;;;0.77;0.77;;;15.70;52.60;;;;;;4950676;28;45598;-63
2022/11/12 09:25:42;;;;;;;1.08;0.88;;;15.70;52.60;;;;;;4952988;28;45349;-65
2022/11/12 09:28:16;;;;;;;2.25;1.05;;;15.70;52.60;;;;;;4949644;28;46027;-62
2022/11/12 09:30:42;;;;;;;;;;;15.70;52.70;;;;;;4947339;28;46073;-62
2022/11/12 09:33:08;;;;;;;1.10;0.82;;;15.60;52.70;;;;;;4953084;28;45205;-65
2022/11/12 09:35:34;;;;;;;1.00;0.90;;;15.60;52.80;;;;;;4954617;28;45359;-62
2022/11/12 09:37:59;;;;;;;0.93;0.90;;;15.70;52.80;;;;;;4953486;28;46034;-61
2022/11/12 09:40:49;;;;;;;0.70;0.70;;;15.70;52.80;;;;;;4946995;28;45294;-59
2022/11/12 09:43:31;;;;;;;1.35;0.90;;;15.70;52.80;;;;;;4918276;28;45218;-61
2022/11/12 09:46:18;;;;;;;0.95;0.80;;;15.70;52.70;;;;;;4941431;28;45367;-62
2022/11/12 09:48:46;;;;;;;1.10;0.80;;;15.70;52.70;;;;;;4947701;28;46234;-64
2022/11/12 09:51:17;;;;;;;0.70;0.70;;;15.70;52.70;;;;;;4932800;28;45528;-63
2022/11/12 09:54:07;;;;;;;1.08;0.90;;;15.70;52.70;;;;;;4944428;28;45572;-63
2022/11/12 09:56:33;;;;;;;1.08;0.88;;;15.70;52.60;;;;;;4942914;28;46221;-62
2022/11/12 09:58:58;;;;;;;0.60;0.60;;;15.70;52.60;;;;;;4937739;28;47016;-66
2022/11/12 10:01:37;;;;;;;1.58;0.88;;;15.70;52.60;;;;;;4947938;28;45462;-60
2022/11/12 10:04:17;;;;;;;0.60;0.60;;;15.70;52.60;;;;;;4937873;28;45405;-63
2022/11/12 10:06:58;;;;;;;1.25;1.05;;;15.70;52.60;;;;;;4938454;28;45231;-63
2022/11/12 10:09:28;;;;;;;0.80;0.80;;;15.70;52.60;;;;;;4932844;28;46407;-63
2022/11/12 10:14:52;;;;;;;0.82;0.82;;;15.70;52.60;;;;;;4940806;28;45545;-63
2022/11/12 10:17:33;;;;;;;1.10;1.00;;;15.70;52.60;;;;;;4940851;28;45141;-62
2022/11/12 10:20:17;;;;;;;0.70;0.70;;;15.70;52.60;;;;;;4923895;28;47028;-64
2022/11/12 10:23:10;;;;;;;0.77;0.77;;;15.70;52.70;;;;;;4942211;28;45210;-61
2022/11/12 10:25:35;;;;;;;1.23;0.95;;;15.70;52.70;;;;;;4944767;28;45047;-63
2022/11/12 10:28:06;;;;;;;1.08;0.60;;;15.70;52.70;;;;;;4955351;28;45435;-63
2022/11/12 10:30:32;;;;;;;1.48;0.90;;;15.70;52.70;;;;;;4932357;28;46930;-60
2022/11/12 10:32:57;;;;;;;0.77;0.75;;;15.70;52.70;;;;;;4932864;28;45092;-64
2022/11/12 10:35:23;;;;;;;0.73;0.73;;;15.70;52.70;;;;;;4954493;28;45484;-64
2022/11/12 10:37:58;;;;;;;1.20;0.82;;;15.70;52.70;;;;;;4955278;28;45285;-63
2022/11/12 10:40:35;;;;;;;0.98;0.90;;;15.70;52.70;;;;;;4955090;28;46179;-63
2022/11/12 10:43:05;;;;;;;0.90;0.73;;;15.70;52.70;;;;;;4949456;28;45320;-63
2022/11/12 10:45:31;;;;;;;1.30;1.10;;;15.70;52.70;;;;;;4937371;28;45319;-60
2022/11/12 10:47:58;;;;;;;1.10;1.00;;;15.80;52.70;;;;;;4951574;28;45809;-62
2022/11/12 10:50:38;;;;;;;0.75;0.70;;;15.80;52.70;;;;;;4954299;28;45495;-63
2022/11/12 10:53:05;;;;;;;1.00;0.90;;;15.70;52.70;;;;;;4957181;28;45557;-63
2022/11/12 10:55:33;;;;;;;1.17;1.00;;;15.80;52.70;;;;;;4937369;28;45650;-63
2022/11/12 10:58:06;;;;;;;0.75;0.75;;;15.80;52.70;;;;;;4939305;28;45583;-63
2022/11/12 11:00:31;;;;;;;1.00;0.90;;;15.80;52.70;;;;;;4952311;28;46137;-64
2022/11/12 11:02:57;;;;;;;0.73;0.73;;;15.70;52.60;;;;;;4956043;28;44867;-62
2022/11/12 11:06:05;;;;;;;0.68;0.60;;;15.80;52.70;;;;;;4942575;28;45077;-62
2022/11/12 11:08:34;;;;;;;0.65;0.65;;;15.70;52.50;;;;;;4874459;29;45434;-62
2022/11/12 11:11:15;;;;;;;1.02;0.80;;;15.70;52.60;;;;;;4943595;28;46403;-59
2022/11/12 11:13:40;;;;;;;0.77;0.77;;;15.80;52.60;;;;;;4950564;28;44851;-61
2022/11/12 11:16:09;;;;;;;0.88;0.88;;;15.80;52.60;;;;;;4945998;28;45840;-66
2022/11/12 11:18:36;;;;;;;0.95;0.75;;;15.80;52.60;;;;;;4948954;28;46281;-62
2022/11/12 11:21:33;;;;;;;1.30;0.93;;;15.80;52.70;;;;;;4919033;28;45653;-63
2022/11/12 11:24:23;;;;;;;1.13;0.90;;;15.80;52.60;;;;;;4953368;28;46168;-61
2022/11/12 11:27:26;;;;;;;0.82;0.73;;;15.80;52.70;;;;;;4952279;28;45317;-61
2022/11/12 11:30:06;;;;;;;0.98;0.80;;;15.80;52.60;;;;;;4951514;28;45287;-63
2022/11/12 11:32:38;;;;;;;0.80;0.80;;;15.80;52.60;;;;;;4955124;28;45893;-61
2022/11/12 11:35:21;;;;;;;0.70;0.70;;;15.80;52.60;;;;;;4957515;28;45412;-63
2022/11/12 11:37:50;;;;;;;;;;;15.80;52.70;;;;;;4957128;28;45353;-64
2022/11/12 11:40:30;;;;;;;0.77;0.77;;;15.80;52.60;;;;;;4950763;28;44967;-60
2022/11/12 11:43:10;;;;;;;0.90;0.70;;;15.80;52.70;;;;;;4935047;28;45578;-61
2022/11/12 11:46:22;;;;;;;0.80;0.80;;;15.80;52.60;;;;;;4953060;28;45215;-61
2022/11/12 11:49:18;;;;;;;0.80;0.80;;;15.80;52.60;;;;;;4877725;29;45477;-64
2022/11/12 11:52:25;;;;;;;0.60;0.60;;;15.80;52.60;;;;;;4868186;29;45369;-62
2022/11/12 11:55:18;;;;;;;0.80;0.80;;;15.80;52.60;;;;;;4943495;28;46082;-64
2022/11/12 11:58:06;;;;;;;0.80;0.70;;;15.80;52.60;;;;;;4947497;28;46595;-65
2022/11/12 12:00:46;;;;;;;0.88;0.80;;;15.80;52.70;;;;;;4940903;28;45739;-63
2022/11/12 12:03:30;;;;;;;0.70;0.70;;;15.80;52.70;;;;;;4928594;28;45393;-63
2022/11/12 12:06:17;;;;;;;0.70;0.70;;;15.80;52.60;;;;;;4949189;28;46128;-63
2022/11/12 12:09:11;;;;;;;0.77;0.77;;;15.80;52.60;;;;;;4963226;28;45063;-67
2022/11/12 12:11:42;;;;;;;0.73;0.70;;;15.80;52.60;;;;;;4942518;28;45344;-61
2022/11/12 12:14:28;;;;;;;0.65;0.65;;;15.80;52.70;;;;;;4948370;28;45549;-62
2022/11/12 12:17:19;;;;;;;1.02;0.80;;;15.80;52.60;;;;;;4944203;28;45188;-63
2022/11/12 12:19:56;;;;;;;1.00;0.90;;;15.80;52.60;;;;;;4943109;28;45622;-62
2022/11/12 12:22:55;;;;;;;0.70;0.70;;;15.80;52.70;;;;;;4958726;28;44953;-61
2022/11/12 12:25:25;;;;;;;0.80;0.80;;;15.80;52.60;;;;;;4944194;28;44879;-61
2022/11/12 12:28:00;;;;;;;0.73;0.60;;;15.80;52.70;;;;;;4922429;28;46239;-66
2022/11/12 12:30:26;;;;;;;0.75;0.73;;;15.90;52.60;;;;;;4919313;28;45272;-62
2022/11/12 12:33:01;;;;;;;0.80;0.70;;;15.80;52.70;;;;;;4933820;28;45660;-65
2022/11/12 12:35:29;;;;;;;1.00;0.90;;;15.80;52.60;;;;;;4927976;28;46051;-62
2022/11/12 12:38:10;;;;;;;0.73;0.73;;;15.80;52.60;;;;;;4936514;28;45890;-62
2022/11/12 12:41:00;;;;;;;1.10;1.00;;;15.80;52.60;;;;;;4927090;28;44932;-61
2022/11/12 12:43:58;;;;;;;0.98;0.80;;;15.90;52.60;;;;;;4951502;28;45062;-63
2022/11/12 12:46:26;;;;;;;0.98;0.85;;;15.80;52.60;;;;;;4952686;28;45256;-61
2022/11/12 12:48:52;;;;;;;1.08;0.80;;;15.90;52.60;;;;;;4925673;28;45398;-63
2022/11/12 12:51:18;;;;;;;1.10;0.80;;;15.80;52.70;;;;;;4944565;28;45191;-59
2022/11/12 12:53:44;;;;;;;0.80;0.75;;;15.90;52.70;;;;;;4923111;28;45162;-63
2022/11/12 12:56:12;;;;;;;0.60;0.60;;;15.90;52.60;;;;;;4921099;28;44886;-62
2022/11/12 12:58:45;;;;;;;0.90;0.70;;;15.90;52.60;;;;;;4955855;28;46831;-62
2022/11/12 13:01:23;;;;;;;1.20;0.90;;;15.90;52.60;;;;;;4931591;28;45470;-62
2022/11/12 13:04:02;;;;;;;0.88;0.88;;;15.90;52.60;;;;;;4950967;28;45272;-63
2022/11/12 13:06:55;;;;;;;1.05;0.90;;;15.90;52.60;;;;;;4931600;28;45337;-62
2022/11/12 13:09:23;;;;;;;0.88;0.77;;;15.90;52.50;;;;;;4941476;28;46211;-60
2022/11/12 13:14:33;;;;;;;0.82;0.82;;;15.90;52.50;;;;;;4955008;28;45023;-62
2022/11/12 13:17:08;;;;;;;0.93;0.82;;;15.90;52.50;;;;;;4956300;28;45310;-62
2022/11/12 13:19:52;;;;;;;0.88;0.73;;;15.90;52.50;;;;;;4954233;28;45318;-62
2022/11/12 13:22:18;;;;;;;0.70;0.70;;;15.90;52.50;;;;;;4940048;28;45116;-62
2022/11/12 13:25:03;;;;;;;0.98;0.70;;;15.90;52.50;;;;;;4952378;28;45491;-63
2022/11/12 13:27:46;;;;;;;0.70;0.70;;;15.90;52.50;;;;;;4954944;28;45233;-63
2022/11/12 13:30:12;;;;;;;0.70;0.70;;;15.90;52.50;;;;;;4952075;28;46054;-60
2022/11/12 13:32:46;;;;;;;1.83;0.80;;;15.90;52.50;;;;;;4952485;28;44784;-61
2022/11/12 13:35:21;;;;;;;1.00;0.80;;;15.90;52.50;;;;;;4954620;28;45070;-60
2022/11/12 13:38:10;;;;;;;0.77;0.77;;;15.90;52.50;;;;;;4951247;28;45394;-59
2022/11/12 13:40:50;;;;;;;0.80;0.80;;;15.90;52.50;;;;;;4950556;28;45112;-60
2022/11/12 13:43:19;;;;;;;0.70;0.70;;;15.90;52.50;;;;;;4950965;28;47396;-58
2022/11/12 13:45:52;;;;;;;0.73;0.70;;;15.90;52.50;;;;;;4955320;28;45444;-61
2022/11/12 13:48:29;;;;;;;0.73;0.73;;;15.90;52.50;;;;;;4944484;28;45531;-58
2022/11/12 13:50:57;;;;;;;1.08;0.98;;;15.90;52.50;;;;;;4916562;28;46825;-60
2022/11/12 13:53:27;;;;;;;0.73;0.73;;;15.90;52.50;;;;;;4936590;28;45340;-63
2022/11/12 13:55:53;;;;;;;0.98;0.80;;;15.90;52.60;;;;;;4941359;28;45419;-59
2022/11/12 13:58:25;;;;;;;0.75;0.60;;;15.90;52.50;;;;;;4939229;28;45300;-62
2022/11/12 14:00:53;;;;;;;0.70;0.70;;;15.90;52.50;;;;;;4949936;28;45665;-59
2022/11/12 14:03:18;;;;;;;1.02;0.80;;;15.90;52.50;;;;;;4941807;28;45326;-58
2022/11/12 14:05:46;;;;;;;0.77;0.70;;;15.90;52.50;;;;;;4955874;28;45259;-62
2022/11/12 14:08:36;;;;;;;0.98;0.88;;;15.90;52.50;;;;;;4947614;28;45318;-59
2022/11/12 14:11:15;;;;;;;0.93;0.90;;;16.00;52.50;;;;;;4953877;28;46159;-62
2022/11/12 14:14:02;;;;;;;1.08;0.80;;;15.90;52.50;;;;;;4930748;28;45285;-60
2022/11/12 14:16:37;;;;;;;0.77;0.77;;;15.90;52.50;;;;;;4938702;28;45161;-60
2022/11/12 14:19:41;;;;;;;0.80;0.80;;;15.90;52.50;;;;;;4890423;28;44847;-60
2022/11/12 14:22:13;;;;;;;0.98;0.70;;;15.90;52.50;;;;;;4878915;29;45230;-62
2022/11/12 14:24:39;;;;;;;0.77;0.77;;;15.90;52.50;;;;;;4941619;28;46088;-63
2022/11/12 14:27:19;;;;;;;0.60;0.60;;;15.90;52.50;;;;;;4926905;28;45432;-63
2022/11/12 14:29:45;;;;;;;0.68;0.68;;;15.90;52.50;;;;;;4940748;28;45628;-63
2022/11/12 14:32:10;;;;;;;1.05;0.77;;;15.90;52.50;;;;;;4935509;28;46735;-61
2022/11/12 14:34:36;;;;;;;0.80;0.80;;;15.90;52.50;;;;;;4953469;28;45695;-61
2022/11/12 14:37:02;;;;;;;0.73;0.70;;;15.90;52.60;;;;;;4948630;28;45235;-66
2022/11/12 14:39:27;;;;;;;0.85;0.85;;;15.90;52.60;;;;;;4942892;28;45348;-64
2022/11/12 14:41:55;;;;;;;0.63;0.63;;;15.90;52.60;;;;;;4923250;28;45351;-63
2022/11/12 14:44:23;;;;;;;0.65;0.65;;;15.90;52.60;;;;;;4936271;28;45332;-63
2022/11/12 14:46:53;;;;;;;1.23;1.13;;;15.90;52.60;;;;;;4954318;28;45490;-62
2022/11/12 14:49:39;;;;;;;0.60;0.60;;;15.90;52.60;;;;;;4922352;28;45310;-61
2022/11/12 14:52:18;;;;;;;0.93;0.77;;;15.90;52.60;;;;;;4949494;28;46975;-64
2022/11/12 14:54:55;;;;;;;0.98;0.70;;;15.90;52.60;;;;;;4940608;28;45225;-62
2022/11/12 14:57:26;;;;;;;1.08;0.70;;;15.90;52.60;;;;;;4935466;28;45259;-60
2022/11/12 14:59:51;;;;;;;0.70;0.70;;;15.90;52.60;;;;;;4919932;28;45528;-59
2022/11/12 15:02:20;;;;;;;0.75;0.70;;;15.90;52.60;;;;;;4954736;28;46064;-62
2022/11/12 15:04:54;;;;;;;1.20;0.80;;;15.90;52.60;;;;;;4940010;28;45146;-63
2022/11/12 15:07:28;;;;;;;0.70;0.70;;;15.90;52.60;;;;;;4953931;28;45294;-62
2022/11/12 15:09:54;;;;;;;0.75;0.75;;;15.90;52.60;;;;;;4950033;28;45520;-61
2022/11/12 15:12:24;;;;;;;0.70;0.68;;;15.90;52.70;;;;;;4951990;28;45513;-62
2022/11/12 15:14:53;;;;;;;1.23;0.82;;;15.90;52.70;;;;;;4940826;28;44593;-60
2022/11/12 15:17:30;;;;;;;0.63;0.63;;;15.90;52.70;;;;;;4926139;28;45622;-61
2022/11/12 15:20:03;;;;;;;0.98;0.80;;;15.90;52.60;;;;;;4951939;28;45395;-61
2022/11/12 15:22:28;;;;;;;0.80;0.80;;;15.90;52.70;;;;;;4952614;28;46076;-62
2022/11/12 15:24:54;;;;;;;0.70;0.70;;;15.90;52.70;;;;;;4936734;28;45200;-62
2022/11/12 15:27:33;;;;;;;0.65;0.63;;;15.90;52.70;;;;;;4957651;28;45256;-64
2022/11/12 15:30:15;;;;;;;1.00;0.90;;;15.90;52.60;;;;;;4951786;28;44795;-64
2022/11/12 15:32:40;;;;;;;0.70;0.70;;;15.90;52.70;;;;;;4958575;28;46273;-61
2022/11/12 15:35:42;;;;;;;0.77;0.70;;;15.90;52.70;;;;;;4955295;28;45552;-61
2022/11/12 15:38:19;;;;;;;0.65;0.65;;;15.90;52.70;;;;;;4957647;28;45642;-64
2022/11/12 15:40:45;;;;;;;0.88;0.75;;;15.90;52.60;;;;;;4945031;28;45451;-64
2022/11/12 15:43:16;;;;;;;0.60;0.60;;;15.90;52.70;;;;;;4941008;28;46032;-63
2022/11/12 15:45:41;;;;;;;0.60;0.60;;;15.90;52.70;;;;;;4935232;28;45380;-65
2022/11/12 15:48:10;;;;;;;0.73;0.73;;;15.90;52.70;;;;;;4938188;28;44631;-62
2022/11/12 15:50:35;;;;;;;0.70;0.70;;;15.90;52.60;;;;;;4940797;28;45786;-61
2022/11/12 15:53:01;;;;;;;0.63;0.63;;;15.80;52.60;;;;;;4958989;28;45918;-62
2022/11/12 15:55:26;;;;;;;0.77;0.77;;;15.90;52.70;;;;;;4956563;28;45231;-61
2022/11/12 15:57:52;;;;;;;0.90;0.80;;;15.80;52.70;;;;;;4959435;28;44734;-59
2022/11/12 16:00:22;;;;;;;0.80;0.80;;;15.90;52.70;;;;;;4954154;28;45349;-61
2022/11/12 16:03:08;;;;;;;1.25;0.82;;;15.90;52.70;;;;;;4932970;28;46216;-61
2022/11/12 16:05:34;;;;;;;0.70;0.60;;;15.80;52.70;;;;;;4958906;28;45274;-61
2022/11/12 16:07:59;;;;;;;0.90;0.80;;;15.80;52.80;;;;;;4956938;28;45340;-61
2022/11/12 16:10:25;;;;;;;1.30;0.93;;;15.80;52.70;;;;;;4954785;28;45264;-63
2022/11/12 16:12:51;;;;;;;1.08;0.80;;;15.80;52.70;;;;;;4954488;28;45060;-61
2022/11/12 16:15:18;;;;;;;1.05;0.80;;;15.80;52.70;;;;;;4925523;28;45505;-62
2022/11/12 16:17:44;;;;;;;0.80;0.70;;;15.80;52.70;;;;;;4960347;28;45217;-60
2022/11/12 16:20:14;;;;;;;1.15;0.88;;;15.90;52.70;;;;;;4953706;28;45602;-59
2022/11/12 16:22:40;;;;;;;0.98;0.70;;;15.80;52.70;;;;;;4959757;28;47110;-57
2022/11/12 16:25:06;;;;;;;0.70;0.70;;;15.80;52.70;;;;;;4947446;28;45242;-63
2022/11/12 16:27:32;;;;;;;1.10;0.90;;;15.80;52.70;;;;;;4958143;28;45162;-63
2022/11/12 16:29:57;;;;;;;0.63;0.63;;;15.80;52.70;;;;;;4937903;28;45543;-64
2022/11/12 16:32:23;;;;;;;0.77;0.73;;;15.80;52.80;;;;;;4952923;28;46118;-63
2022/11/12 16:34:48;;;;;;;0.90;0.88;;;15.80;52.80;;;;;;4932072;28;44999;-63
2022/11/12 16:37:14;;;;;;;1.52;0.90;;;15.80;52.80;;;;;;4956426;28;45344;-64
2022/11/12 16:39:40;;;;;;;0.80;0.80;;;15.80;52.80;;;;;;4944475;28;44722;-61
2022/11/12 16:42:08;;;;;;;0.95;0.90;;;15.80;52.80;;;;;;4951166;28;47174;-63
2022/11/12 16:44:34;;;;;;;1.13;0.88;;;15.80;52.80;;;;;;4953469;28;45482;-61
2022/11/12 16:47:01;;;;;;;0.90;0.82;;;15.70;52.70;;;;;;4953774;28;45494;-61
2022/11/12 16:49:26;;;;;;;0.80;0.70;;;15.70;52.80;;;;;;4957752;28;45842;-61
2022/11/12 16:51:52;;;;;;;1.10;0.95;;;15.80;52.80;;;;;;4953698;28;46150;-57
2022/11/12 16:54:17;;;;;;;0.98;0.88;;;15.80;52.80;;;;;;4953784;28;45556;-57
2022/11/12 16:56:43;;;;;;;0.68;0.57;;;15.80;52.80;;;;;;4956276;28;45626;-63
2022/11/12 16:59:14;;;;;;;0.60;0.60;;;15.80;52.80;;;;;;4959482;28;45058;-61
2022/11/12 17:01:40;;;;;;;0.80;0.80;;;15.80;52.80;;;;;;4935177;28;45263;-60
2022/11/12 17:04:05;;;;;;;0.80;0.70;;;15.70;52.80;;;;;;4952727;28;45173;-66
2022/11/12 17:06:40;;;;;;;1.05;0.73;;;15.80;52.90;;;;;;4951633;28;45247;-59
2022/11/12 17:09:07;;;;;;;1.00;0.70;;;15.80;52.80;;;;;;4953626;28;45014;-65
2022/11/12 17:11:33;;;;;;;0.70;0.70;;;15.80;52.80;;;;;;4958713;28;45935;-63
2022/11/12 17:14:02;;;;;;;0.75;0.75;;;15.80;52.80;;;;;;4923921;28;45620;-60
2022/11/12 17:16:28;;;;;;;0.98;0.88;;;15.80;52.80;;;;;;4948548;28;45266;-60
2022/11/12 17:18:55;;;;;;;1.55;1.00;;;15.70;52.80;;;;;;4957660;28;44707;-63
2022/11/12 17:21:21;;;;;;;1.10;0.80;;;15.70;52.80;;;;;;4954851;28;46031;-61
2022/11/12 17:23:46;;;;;;;0.80;0.80;;;15.80;52.80;;;;;;4936101;28;45356;-64
2022/11/12 17:26:16;;;;;;;0.82;0.73;;;15.70;52.80;;;;;;4952742;28;45387;-63
2022/11/12 17:28:42;;;;;;;1.40;1.00;;;15.80;52.80;;;;;;4956886;28;45543;-63
2022/11/12 17:31:18;;;;;;;0.85;0.80;;;15.70;52.80;;;;;;4953471;28;45562;-63